This is the latest recevied weather packets stored in our database for station/object F4AMY-13. If no packets are shown the sender has not sent any weather packets the latest 10 day(s).
| Time | Temp. | Humidity | Pressure | Rain* | Wind** | Luminosity | Snow |
|---|---|---|---|---|---|---|---|
| 1777899127 | 15.56° C | 81% | 1012.8 hPa | 0 mm | 11.62 m/s, ° | 26 W/m² | - |
| 1777898827 | 16.11° C | 80% | 1012.7 hPa | 0 mm | 17.88 m/s, ° | 40 W/m² | - |
| 1777898527 | 16.11° C | 80% | 1012.7 hPa | 0 mm | 21.46 m/s, ° | 48 W/m² | - |
| 1777898227 | 16.11° C | 82% | 1012.7 hPa | 0 mm | 20.56 m/s, ° | 46 W/m² | - |
| 1777897927 | 16.11° C | 80% | 1012.7 hPa | 0 mm | 18.78 m/s, ° | 42 W/m² | - |
| 1777897627 | 16.11° C | 81% | 1012.8 hPa | 0 mm | 26.82 m/s, ° | 60 W/m² | - |
| 1777897327 | 16.11° C | 82% | 1012.8 hPa | 0 mm | 39.79 m/s, ° | 89 W/m² | - |
| 1777897027 | 16.11° C | 83% | 1012.8 hPa | 0 mm | 26.38 m/s, ° | 59 W/m² | - |
| 1777896727 | 16.11° C | 82% | 1012.9 hPa | 0 mm | 35.32 m/s, ° | 79 W/m² | - |
| 1777896427 | 16.11° C | 83% | 1012.7 hPa | 0 mm | 21.9 m/s, ° | 49 W/m² | - |
| 1777896127 | 16.67° C | 82% | 1012.5 hPa | 0 mm | 16.54 m/s, ° | 37 W/m² | - |
| 1777895827 | 16.67° C | 82% | 1012.6 hPa | 0 mm | 17.88 m/s, ° | 40 W/m² | - |
| 1777895526 | 16.67° C | 81% | 1012.4 hPa | 0 mm | 29.5 m/s, ° | 66 W/m² | - |
| 1777895226 | 16.67° C | 79% | 1012.3 hPa | 0 mm | 37.1 m/s, ° | 83 W/m² | - |
| 1777894926 | 17.22° C | 79% | 1012.4 hPa | 0 mm | 37.55 m/s, ° | 84 W/m² | - |
| 1777894626 | 17.22° C | 78% | 1012.3 hPa | 0 mm | 39.79 m/s, ° | 89 W/m² | - |
| 1777894326 | 17.78° C | 76% | 1012.2 hPa | 0 mm | 35.32 m/s, ° | 79 W/m² | - |
| 1777894026 | 17.78° C | 75% | 1012.1 hPa | 0 mm | 33.98 m/s, ° | 76 W/m² | - |
| 1777893726 | 17.78° C | 77% | 1012.1 hPa | 0 mm | 38 m/s, ° | 85 W/m² | - |
| 1777893477 | 17.78° C | 76% | 1012.2 hPa | 0 mm | 50.07 m/s, ° | 112 W/m² | - |
| 1777893426 | 17.78° C | 76% | 1012.2 hPa | 0 mm | 50.07 m/s, ° | 112 W/m² | - |
| 1777893126 | 17.78° C | 74% | 1011.9 hPa | 0 mm | 36.66 m/s, ° | 82 W/m² | - |
| 1777892826 | 17.78° C | 77% | 1012.2 hPa | 0 mm | 52.75 m/s, ° | 118 W/m² | - |
| 1777892526 | 17.78° C | 77% | 1012.4 hPa | 0 mm | 73.31 m/s, ° | 164 W/m² | - |
| 1777892227 | 17.78° C | 78% | 1012.4 hPa | 0 mm | - | - | - |
* Rain latest hour (hover to see other rain measurements)
** Current wind speed in m/s (hover to see current wind gust speed)